Terminal Aerodrome Forecast
Issued by NWS Newport/Morehead City, NC

Home | Current Version | Previous Version | Text Only | Print | Product List | Glossary Off
Versions: 1 2 3 4 5 6 7 8 9 10 11 12 13

322
FTUS42 KMHX 191738
TAFEWN
TAF
KEWN 191738Z 1918/2018 23005KT P6SM VCTS BKN040CB
      TEMPO 1918/1920 4SM -TSRA BKN025CB
     FM192300 VRB03KT P6SM SCT050
     FM201500 19005KT P6SM SCT050=

USA.gov is the U.S. government's official web portal to all federal, state and local government web resources and services.